Time;durP1;ratioP1;P1;durP2;ratioP2;P2;SDS_P1;SDS_P2;PMS_P1;PMS_P2;Temp;Humidity;BMP_temperature;BMP_pressure;BME280_temperature;BME280_humidity;BME280_pressure;Samples;Min_cycle;Max_cycle;Signal;HPM_P1;HPM_P2
2021/09/22 00:02:25;;;;;;;1.23;1.23;;;;;;;5.92;91.79;99549.66;6241514;23;20012;-74
2021/09/22 00:04:51;;;;;;;1.55;1.55;;;;;;;5.88;91.61;99548.09;6241968;23;20026;-74
2021/09/22 00:07:18;;;;;;;1.70;1.70;;;;;;;5.88;91.35;99549.81;6242043;23;20412;-73
2021/09/22 00:09:44;;;;;;;2.90;1.90;;;;;;;5.89;91.42;99548.94;6242206;23;20020;-72
2021/09/22 00:12:10;;;;;;;1.55;1.55;;;;;;;5.88;91.50;99548.09;6241120;23;20486;-74
2021/09/22 00:14:35;;;;;;;1.30;1.25;;;;;;;5.87;91.76;99545.53;6214187;23;20073;-74
2021/09/22 00:17:03;;;;;;;2.47;1.55;;;;;;;5.84;91.23;99546.47;6242179;23;20020;-75
2021/09/22 00:19:28;;;;;;;1.85;1.77;;;;;;;5.83;91.38;99552.56;6241480;23;20101;-75
2021/09/22 00:21:54;;;;;;;2.05;1.58;;;;;;;5.84;91.86;99541.31;6242494;23;20103;-74
2021/09/22 00:24:20;;;;;;;1.58;1.48;;;;;;;5.81;91.08;99536.25;6241779;23;20043;-74
2021/09/22 00:26:47;;;;;;;1.88;1.77;;;;;;;5.78;91.27;99534.63;6242136;23;20096;-75
2021/09/22 00:29:12;;;;;;;2.25;2.05;;;;;;;5.80;91.75;99542.31;6241488;23;20024;-75
2021/09/22 00:31:40;;;;;;;1.60;1.50;;;;;;;5.79;91.36;99546.66;6241691;23;20131;-75
2021/09/22 00:34:06;;;;;;;1.90;1.80;;;;;;;5.76;91.25;99543.34;6214944;23;20027;-75
2021/09/22 00:36:33;;;;;;;1.92;1.83;;;;;;;5.78;91.57;99546.75;6241704;23;20020;-74
2021/09/22 00:38:59;;;;;;;1.50;1.50;;;;;;;5.78;91.27;99533.78;6242120;23;20099;-74
2021/09/22 00:41:25;;;;;;;1.60;1.52;;;;;;;5.75;91.89;99537.34;6214763;23;20051;-73
2021/09/22 00:44:10;;;;;;;6.03;2.05;;;;;;;5.73;91.32;99539.13;6242245;23;20024;-74
2021/09/22 00:46:56;;;;;;;8.35;1.38;;;;;;;5.71;91.50;99535.78;6242235;23;20031;-74
2021/09/22 00:49:42;;;;;;;1.55;1.55;;;;;;;5.69;91.42;99531.56;6242223;23;20046;-74
2021/09/22 00:52:28;;;;;;;0.82;0.82;;;;;;;5.74;91.25;99532.22;6219447;23;20042;-74
2021/09/22 00:55:14;;;;;;;1.83;1.73;;;;;;;5.73;91.57;99530.53;6198421;23;20111;-76
2021/09/22 00:57:59;;;;;;;1.05;1.05;;;;;;;5.70;91.53;99528.91;6241884;23;20028;-73
2021/09/22 01:00:45;;;;;;;1.50;1.50;;;;;;;5.69;91.60;99526.41;6219520;23;20403;-72
2021/09/22 01:03:31;;;;;;;1.20;1.20;;;;;;;5.69;91.81;99529.81;6198491;23;20024;-73
2021/09/22 01:06:17;;;;;;;1.15;1.15;;;;;;;5.70;91.85;99528.06;6241723;23;20016;-75
2021/09/22 01:09:03;;;;;;;1.10;1.10;;;;;;;5.68;91.46;99524.69;6219675;23;20024;-75
2021/09/22 01:11:48;;;;;;;1.48;1.45;;;;;;;5.68;91.74;99519.53;6219624;23;20020;-75
2021/09/22 01:14:34;;;;;;;1.42;1.42;;;;;;;5.66;91.72;99524.75;6219322;23;20947;-75
2021/09/22 01:17:21;;;;;;;2.15;2.05;;;;;;;5.56;90.84;99513.06;6241488;23;20024;-75
2021/09/22 01:20:07;;;;;;;1.35;1.35;;;;;;;5.59;90.92;99514.72;6241437;23;20430;-74
2021/09/22 01:22:56;;;;;;;1.30;1.30;;;;;;;5.61;91.25;99513.75;6219832;23;20016;-75
2021/09/22 01:25:44;;;;;;;1.10;1.10;;;;;;;5.62;91.07;99512.84;6198753;23;20027;-76
2021/09/22 01:28:31;;;;;;;1.23;1.23;;;;;;;5.60;91.09;99506.03;6219348;23;20016;-75
2021/09/22 01:31:20;;;;;;;1.45;1.45;;;;;;;5.58;91.27;99513.03;6199395;23;20034;-76
2021/09/22 01:34:07;;;;;;;0.95;0.95;;;;;;;5.57;91.21;99507.00;6241920;23;20016;-75
2021/09/22 01:37:20;;;;;;;1.25;1.25;;;;;;;5.59;91.44;99506.94;6218768;23;20386;-76
2021/09/22 01:40:25;;;;;;;0.75;0.75;;;;;;;5.56;91.49;99509.66;6241395;23;20058;-76
2021/09/22 01:43:12;;;;;;;2.10;2.00;;;;;;;5.56;91.74;99507.91;6221520;23;20410;-75
2021/09/22 01:46:08;;;;;;;1.45;1.45;;;;;;;5.55;91.68;99502.78;6221337;23;20024;-75
2021/09/22 01:48:54;;;;;;;1.45;1.45;;;;;;;5.57;91.22;99498.38;6201406;23;20537;-74
2021/09/22 01:51:41;;;;;;;1.60;1.55;;;;;;;5.52;91.76;99500.34;6221118;23;20024;-74
2021/09/22 01:54:30;;;;;;;2.28;2.17;;;;;;;5.55;91.85;99506.22;6220511;23;20432;-74
2021/09/22 01:57:16;;;;;;;1.40;1.40;;;;;;;5.50;91.52;99504.72;6220941;23;20313;-74
2021/09/22 02:00:04;;;;;;;3.88;1.00;;;;;;;5.51;91.09;99506.41;6243341;23;20345;-74
2021/09/22 02:03:05;;;;;;;1.15;1.15;;;;;;;5.49;91.16;99518.56;6221332;23;20105;-72
2021/09/22 02:05:57;;;;;;;1.25;1.25;;;;;;;5.48;91.36;99509.13;6221200;23;20031;-73
2021/09/22 02:08:44;;;;;;;1.00;1.00;;;;;;;5.47;91.54;99516.03;6221262;23;20107;-73
2021/09/22 02:11:49;;;;;;;1.02;1.02;;;;;;;5.48;91.43;99506.53;6221087;23;20050;-73
2021/09/22 02:14:35;;;;;;;0.88;0.88;;;;;;;5.46;91.13;99514.38;6242851;23;20395;-72
2021/09/22 02:17:23;;;;;;;2.10;2.00;;;;;;;5.46;91.21;99503.16;6221155;23;20024;-74
2021/09/22 02:20:10;;;;;;;1.42;1.40;;;;;;;5.43;91.89;99511.88;6221154;23;20020;-74
2021/09/22 02:23:16;;;;;;;1.23;1.23;;;;;;;5.44;91.23;99515.31;6225600;23;20091;-75
2021/09/22 02:26:02;;;;;;;0.65;0.65;;;;;;;5.43;91.60;99513.66;6220766;23;20031;-76
2021/09/22 02:28:50;;;;;;;2.15;2.05;;;;;;;5.39;91.40;99518.09;6221284;23;20107;-75
2021/09/22 02:31:36;;;;;;;1.00;1.00;;;;;;;5.41;91.79;99505.94;6200047;23;20024;-72
2021/09/22 02:34:24;;;;;;;1.30;1.30;;;;;;;5.43;91.43;99509.28;6220478;23;20016;-72
2021/09/22 02:37:10;;;;;;;1.42;1.42;;;;;;;5.42;91.30;99512.81;6220933;23;20111;-73
2021/09/22 02:40:12;;;;;;;7.28;2.00;;;;;;;5.40;91.63;99499.06;6202384;23;20078;-73
2021/09/22 02:42:58;;;;;;;1.58;1.48;;;;;;;5.40;91.00;99506.81;6200527;23;20020;-73
2021/09/22 02:45:46;;;;;;;2.20;2.08;;;;;;;5.41;91.56;99502.50;6220449;23;20496;-74
2021/09/22 02:48:33;;;;;;;1.13;1.13;;;;;;;5.38;91.36;99500.88;6220014;23;20024;-74
2021/09/22 02:51:21;;;;;;;1.02;1.02;;;;;;;5.39;91.44;99496.53;6220828;23;20023;-74
2021/09/22 02:54:07;;;;;;;1.00;1.00;;;;;;;5.38;91.16;99495.69;6200473;23;20059;-73
2021/09/22 02:56:59;;;;;;;4.22;1.98;;;;;;;5.39;90.90;99497.38;6223094;23;20035;-74
2021/09/22 02:59:45;;;;;;;0.90;0.90;;;;;;;5.37;91.31;99498.34;6224305;23;20020;-74
2021/09/22 03:02:31;;;;;;;2.20;2.10;;;;;;;5.38;90.93;99505.19;6221220;23;20028;-73
2021/09/22 03:05:17;;;;;;;1.10;1.10;;;;;;;5.38;90.91;99505.19;6208712;23;20074;-73
2021/09/22 03:08:03;;;;;;;1.67;1.67;;;;;;;5.39;91.02;99496.53;6220721;23;20496;-72
2021/09/22 03:10:49;;;;;;;1.75;1.75;;;;;;;5.37;91.23;99499.19;6222271;23;20020;-72
2021/09/22 03:13:36;;;;;;;1.08;1.08;;;;;;;5.37;91.28;99494.00;6220398;23;20020;-73
2021/09/22 03:16:22;;;;;;;1.42;1.42;;;;;;;5.38;91.17;99494.84;6242964;23;20110;-72
2021/09/22 03:19:08;;;;;;;1.42;1.42;;;;;;;5.36;90.76;99488.91;6220362;23;20553;-72
2021/09/22 03:21:54;;;;;;;0.73;0.73;;;;;;;5.31;90.95;99481.31;6220473;23;20498;-71
2021/09/22 03:24:53;;;;;;;1.27;1.27;;;;;;;5.33;90.89;99494.19;6220605;23;20024;-72
2021/09/22 03:27:39;;;;;;;1.83;1.73;;;;;;;5.35;91.47;99490.66;6242689;23;20027;-71
2021/09/22 03:30:25;;;;;;;1.10;1.10;;;;;;;5.35;91.38;99489.78;6219837;23;20020;-74
2021/09/22 03:33:31;;;;;;;1.13;1.13;;;;;;;5.35;91.17;99494.97;6221466;23;20031;-73
2021/09/22 03:36:17;;;;;;;0.98;0.98;;;;;;;5.32;91.04;99500.28;6220151;23;20432;-73
2021/09/22 03:39:03;;;;;;;2.85;2.65;;;;;;;5.30;91.28;99496.91;6220285;23;20020;-73
2021/09/22 03:41:49;;;;;;;1.88;1.88;;;;;;;5.33;91.33;99491.63;6220156;23;20020;-74
2021/09/22 03:44:36;;;;;;;3.13;2.92;;;;;;;5.32;91.23;99495.09;6219797;23;20032;-73
2021/09/22 03:47:22;;;;;;;1.70;1.70;;;;;;;5.32;91.86;99492.50;6242192;23;20024;-71
2021/09/22 03:50:09;;;;;;;1.02;1.02;;;;;;;5.32;91.54;99495.94;6220069;23;20458;-72
2021/09/22 03:53:15;;;;;;;1.70;1.70;;;;;;;5.34;91.55;99488.09;6242524;23;20047;-74
2021/09/22 03:56:03;;;;;;;2.25;2.15;;;;;;;5.31;91.73;99496.84;6220139;23;20023;-72
2021/09/22 03:58:49;;;;;;;1.92;1.92;;;;;;;5.28;91.51;99496.97;6220245;23;20059;-70
2021/09/22 04:01:35;;;;;;;2.47;2.28;;;;;;;5.31;91.50;99502.00;6219528;23;20388;-73
2021/09/22 04:04:21;;;;;;;2.10;2.00;;;;;;;5.30;91.45;99494.31;6219034;23;20031;-73
2021/09/22 04:07:07;;;;;;;2.63;2.00;;;;;;;5.30;90.96;99502.09;6220071;23;20028;-71
2021/09/22 04:09:53;;;;;;;1.98;1.88;;;;;;;5.29;91.39;99500.41;6199487;23;20076;-71
2021/09/22 04:12:39;;;;;;;2.17;2.08;;;;;;;5.31;91.15;99496.00;6198205;23;20095;-73
2021/09/22 04:15:26;;;;;;;1.67;1.58;;;;;;;5.31;91.32;99508.94;6217761;23;20016;-72
2021/09/22 04:18:12;;;;;;;1.88;1.77;;;;;;;5.30;91.60;99509.84;6219303;23;20459;-72
2021/09/22 04:20:58;;;;;;;1.27;1.15;;;;;;;5.33;91.67;99499.38;6219770;23;20020;-71
2021/09/22 04:23:44;;;;;;;4.68;1.40;;;;;;;5.30;91.76;99497.72;6219401;23;20020;-70
2021/09/22 04:26:30;;;;;;;2.28;2.10;;;;;;;5.33;91.27;99504.56;6218982;23;20055;-71
2021/09/22 04:29:22;;;;;;;2.33;2.22;;;;;;;5.30;91.61;99504.69;6219738;23;20403;-72
2021/09/22 04:32:26;;;;;;;2.10;2.00;;;;;;;5.31;91.66;99503.75;6241932;23;20024;-74
2021/09/22 04:35:31;;;;;;;2.45;2.25;;;;;;;5.29;91.44;99503.81;6241344;23;20417;-74
2021/09/22 04:38:35;;;;;;;1.50;1.50;;;;;;;5.31;91.32;99502.00;6241897;23;20023;-73
2021/09/22 04:41:40;;;;;;;3.45;2.45;;;;;;;5.31;91.56;99498.56;6241703;23;20024;-74
2021/09/22 04:44:45;;;;;;;0.60;0.60;;;;;;;5.31;91.15;99504.59;6241251;23;20016;-73
2021/09/22 04:47:49;;;;;;;2.80;2.70;;;;;;;5.32;91.08;99500.28;6222007;23;20020;-74
2021/09/22 04:50:54;;;;;;;0.85;0.85;;;;;;;5.34;91.42;99495.88;6241354;23;20020;-73
2021/09/22 04:53:58;;;;;;;1.55;1.55;;;;;;;5.35;91.04;99502.75;6223579;23;20095;-74
2021/09/22 04:57:03;;;;;;;1.83;1.75;;;;;;;5.39;91.19;99496.53;6241770;23;20027;-74
2021/09/22 05:00:08;;;;;;;3.33;3.22;;;;;;;5.34;91.54;99498.47;6223487;23;20016;-73
2021/09/22 05:03:15;;;;;;;1.55;1.50;;;;;;;5.37;91.58;99494.00;6241725;23;20024;-73
2021/09/22 05:06:19;;;;;;;0.85;0.85;;;;;;;5.42;91.27;99494.69;6241489;23;20024;-73
2021/09/22 05:09:24;;;;;;;1.52;1.48;;;;;;;5.40;91.59;99498.25;6241681;23;20476;-74
2021/09/22 05:12:30;;;;;;;3.20;2.47;;;;;;;5.39;91.01;99493.97;6195527;23;20060;-75
2021/09/22 05:15:34;;;;;;;1.98;1.95;;;;;;;5.41;91.13;99499.91;6241368;23;20020;-73
2021/09/22 05:18:39;;;;;;;1.23;1.23;;;;;;;5.48;90.89;99486.66;6243190;23;20020;-73
2021/09/22 05:21:43;;;;;;;1.00;1.00;;;;;;;5.51;91.24;99491.72;6243645;23;20048;-73
2021/09/22 05:24:48;;;;;;;0.98;0.98;;;;;;;5.56;90.93;99505.31;6243608;23;20459;-73
2021/09/22 05:27:52;;;;;;;1.15;1.15;;;;;;;5.57;90.44;99500.97;6244010;23;20023;-72
2021/09/22 05:30:57;;;;;;;2.00;2.00;;;;;;;5.58;90.89;99503.53;6225585;23;20052;-73
2021/09/22 05:34:02;;;;;;;2.15;2.05;;;;;;;5.61;90.73;99499.97;6225894;23;20043;-74
2021/09/22 05:36:47;;;;;;;0.88;0.88;;;;;;;5.67;90.51;99494.53;6243309;23;20127;-73
2021/09/22 05:39:32;;;;;;;4.60;2.05;;;;;;;5.63;90.46;99509.34;6243267;23;20020;-72
2021/09/22 05:42:16;;;;;;;1.90;1.90;;;;;;;5.65;90.48;99506.69;6216464;23;20085;-73
2021/09/22 05:45:01;;;;;;;1.85;1.75;;;;;;;5.61;90.75;99503.38;6243322;23;20082;-72
2021/09/22 05:47:46;;;;;;;1.40;1.30;;;;;;;5.66;90.66;99501.44;6219772;23;20078;-73
2021/09/22 05:50:31;;;;;;;1.42;1.42;;;;;;;5.74;90.49;99498.56;6242578;23;20048;-73
2021/09/22 05:53:15;;;;;;;2.08;1.98;;;;;;;5.76;90.74;99501.91;6243331;23;20099;-73
2021/09/22 05:56:00;;;;;;;1.45;1.45;;;;;;;5.71;90.27;99504.69;6243146;23;20022;-73
2021/09/22 05:58:45;;;;;;;1.95;1.92;;;;;;;5.79;90.53;99512.16;6242327;23;20020;-73
2021/09/22 06:01:29;;;;;;;3.08;2.30;;;;;;;5.74;89.95;99508.91;6243087;23;20100;-73
2021/09/22 06:04:28;;;;;;;1.90;1.80;;;;;;;5.74;90.64;99509.75;6176035;23;20336;-75
2021/09/22 06:07:12;;;;;;;1.98;1.88;;;;;;;5.73;90.15;99513.25;6220402;23;20019;-74
2021/09/22 06:10:11;;;;;;;1.35;1.35;;;;;;;5.75;90.59;99510.59;6176043;23;20074;-73
2021/09/22 06:12:57;;;;;;;1.83;1.73;;;;;;;5.78;90.45;99515.66;6242676;23;20024;-72
2021/09/22 06:15:24;;;;;;;1.33;1.30;;;;;;;5.78;90.65;99516.50;6242542;23;20082;-74
2021/09/22 06:17:50;;;;;;;1.80;1.80;;;;;;;5.79;90.80;99518.16;6242252;23;20024;-72
2021/09/22 06:20:17;;;;;;;1.48;1.48;;;;;;;5.85;91.07;99506.72;6216260;23;20044;-71
2021/09/22 06:22:43;;;;;;;1.83;1.73;;;;;;;5.76;90.25;99512.25;6216220;23;20016;-70
2021/09/22 06:25:10;;;;;;;0.70;0.70;;;;;;;5.80;90.21;99519.00;6243260;23;20020;-71
2021/09/22 06:27:36;;;;;;;1.05;1.05;;;;;;;5.84;90.47;99515.41;6217877;23;20031;-73
2021/09/22 06:30:03;;;;;;;0.75;0.75;;;;;;;5.97;90.96;99521.78;6166447;23;20082;-74
2021/09/22 06:32:31;;;;;;;1.30;1.30;;;;;;;5.85;90.45;99516.25;6216755;23;20016;-74
2021/09/22 06:35:16;;;;;;;1.02;1.02;;;;;;;5.91;90.25;99516.88;6173911;23;20391;-73
2021/09/22 06:37:56;;;;;;;1.17;1.08;;;;;;;5.93;90.72;99519.38;6216108;23;20092;-73
2021/09/22 06:40:27;;;;;;;1.90;1.90;;;;;;;5.96;91.17;99520.09;6215675;23;20027;-73
2021/09/22 06:42:58;;;;;;;;;;;;;;;5.92;90.86;99523.75;6216908;23;20016;-75
2021/09/22 06:45:24;;;;;;;1.38;1.38;;;;;;;5.96;90.81;99524.44;6190929;23;20055;-74
2021/09/22 06:47:51;;;;;;;2.05;1.95;;;;;;;5.96;90.36;99522.69;6242428;23;20363;-76
2021/09/22 06:50:17;;;;;;;2.60;2.50;;;;;;;6.06;90.58;99525.75;6215794;23;20024;-75
2021/09/22 06:56:25;;;;;;;1.80;1.70;;;;;;;6.11;90.27;99526.41;6242861;23;20020;-76
2021/09/22 06:58:51;;;;;;;1.15;1.15;;;;;;;6.08;90.06;99529.13;6236528;23;20737;-73
2021/09/22 07:01:21;;;;;;;0.90;0.90;;;;;;;6.21;90.32;99536.31;6215043;23;20090;-75
2021/09/22 07:03:47;;;;;;;1.98;1.95;;;;;;;6.18;89.99;99536.44;6192515;23;20024;-77
2021/09/22 07:06:13;;;;;;;1.10;1.00;;;;;;;6.22;89.87;99534.56;6250796;23;20115;-78
2021/09/22 07:08:41;;;;;;;2.55;2.45;;;;;;;6.22;90.08;99543.16;6224171;23;20027;-77
2021/09/22 07:11:11;;;;;;;1.67;1.67;;;;;;;6.24;89.60;99531.00;6246649;23;20107;-77
2021/09/22 07:13:38;;;;;;;1.77;1.77;;;;;;;6.33;89.99;99532.34;6245650;23;20016;-76
2021/09/22 07:16:05;;;;;;;2.33;2.22;;;;;;;6.47;89.75;99532.63;6242057;23;20020;-71
2021/09/22 07:18:32;;;;;;;2.53;2.42;;;;;;;6.44;89.72;99537.94;6215187;23;20024;-75
2021/09/22 07:21:00;;;;;;;4.88;3.05;;;;;;;6.40;88.99;99538.97;6214371;23;20016;-73
2021/09/22 07:23:29;;;;;;;3.40;3.20;;;;;;;6.42;89.70;99541.47;6241482;23;20022;-74
2021/09/22 07:25:55;;;;;;;2.95;2.75;;;;;;;6.46;89.22;99543.88;6240721;23;20063;-75
2021/09/22 07:28:22;;;;;;;3.30;3.13;;;;;;;6.42;89.12;99533.69;6241401;23;20012;-74
2021/09/22 07:30:49;;;;;;;3.38;3.17;;;;;;;6.53;88.93;99537.53;6188402;23;20016;-72
2021/09/22 07:33:15;;;;;;;3.13;2.20;;;;;;;6.43;89.02;99549.22;6214695;23;20020;-73
2021/09/22 07:35:41;;;;;;;1.88;1.88;;;;;;;6.42;88.83;99549.25;6241070;23;20480;-74
2021/09/22 07:38:07;;;;;;;2.63;2.53;;;;;;;6.41;89.34;99542.41;6240969;23;20052;-78
2021/09/22 07:40:34;;;;;;;0.90;0.90;;;;;;;6.39;88.94;99549.38;6187668;23;20431;-76
2021/09/22 07:43:00;;;;;;;1.13;1.13;;;;;;;6.43;89.57;99545.75;6214218;23;20039;-76
2021/09/22 07:45:26;;;;;;;4.25;2.38;;;;;;;6.48;89.43;99549.03;6189046;23;20023;-76
2021/09/22 07:47:52;;;;;;;1.30;1.30;;;;;;;6.51;89.45;99548.88;6214023;23;20024;-75
2021/09/22 07:50:18;;;;;;;1.30;1.30;;;;;;;6.55;88.86;99545.22;6241082;23;20466;-75
2021/09/22 07:52:45;;;;;;;1.50;1.42;;;;;;;6.64;89.42;99542.25;6240709;23;20028;-75
2021/09/22 07:55:12;;;;;;;1.67;1.58;;;;;;;6.68;89.16;99549.81;6240470;23;20016;-75
2021/09/22 07:57:38;;;;;;;2.13;1.88;;;;;;;6.66;89.07;99546.47;6240020;23;20020;-75
2021/09/22 08:00:06;;;;;;;1.10;1.10;;;;;;;6.56;88.96;99545.19;6214555;23;20095;-75
2021/09/22 08:02:48;;;;;;;4.78;3.80;;;;;;;6.54;89.37;99557.38;6218058;23;20069;-75
2021/09/22 08:05:14;;;;;;;1.17;1.17;;;;;;;6.66;89.12;99549.06;6240907;23;20016;-76
2021/09/22 08:07:40;;;;;;;2.53;2.35;;;;;;;6.76;89.14;99550.34;6187791;23;20463;-77
2021/09/22 08:10:07;;;;;;;1.92;1.85;;;;;;;6.75;88.70;99553.84;6239578;23;20024;-77
2021/09/22 08:12:34;;;;;;;1.10;1.10;;;;;;;6.77;88.83;99552.00;6239333;23;20016;-76
2021/09/22 08:15:00;;;;;;;0.75;0.75;;;;;;;6.74;88.15;99556.50;6239859;23;20049;-76
2021/09/22 08:17:26;;;;;;;0.90;0.90;;;;;;;6.84;88.44;99556.94;6187804;23;20028;-77
2021/09/22 08:19:55;;;;;;;1.38;1.38;;;;;;;6.85;88.86;99556.00;6213029;23;20042;-76
2021/09/22 08:22:21;;;;;;;0.88;0.88;;;;;;;6.75;88.72;99553.84;6212578;23;20020;-77
2021/09/22 08:24:47;;;;;;;1.75;1.75;;;;;;;6.78;88.83;99558.88;6212488;23;20024;-77
2021/09/22 08:27:13;;;;;;;0.60;0.60;;;;;;;6.86;88.55;99557.69;6212752;23;20047;-75
2021/09/22 08:29:40;;;;;;;0.75;0.75;;;;;;;6.76;88.14;99559.88;6238959;23;20044;-76
2021/09/22 08:32:06;;;;;;;1.13;1.13;;;;;;;6.85;88.53;99558.59;6213475;23;20099;-74
2021/09/22 08:34:32;;;;;;;1.80;1.70;;;;;;;6.97;88.59;99568.47;6213747;23;20058;-76
2021/09/22 08:36:58;;;;;;;0.98;0.98;;;;;;;6.95;87.66;99565.06;6213815;23;20016;-75
2021/09/22 08:39:24;;;;;;;1.25;1.25;;;;;;;6.93;87.37;99561.72;6241186;23;20023;-76
2021/09/22 08:41:50;;;;;;;1.10;1.10;;;;;;;7.00;87.48;99556.16;6240423;23;20015;-76
2021/09/22 08:44:17;;;;;;;0.73;0.73;;;;;;;6.94;87.28;99565.97;6189659;23;20020;-77
2021/09/22 08:46:44;;;;;;;1.55;0.95;;;;;;;6.94;87.22;99564.22;6240036;23;20028;-77
2021/09/22 08:49:14;;;;;;;1.25;1.25;;;;;;;6.94;87.48;99568.56;6189522;23;20124;-74
2021/09/22 08:51:40;;;;;;;0.80;0.80;;;;;;;6.83;87.56;99561.28;6189702;23;20016;-73
2021/09/22 08:54:07;;;;;;;0.85;0.85;;;;;;;6.88;87.76;99568.84;6214237;23;20257;-76
2021/09/22 08:56:36;;;;;;;0.82;0.82;;;;;;;6.84;86.58;99564.72;6214296;23;20019;-77
2021/09/22 08:59:02;;;;;;;1.40;1.40;;;;;;;6.94;86.73;99564.22;6213754;23;20020;-76
2021/09/22 09:01:28;;;;;;;0.77;0.77;;;;;;;7.10;86.84;99567.81;6213677;23;20102;-76
2021/09/22 09:03:54;;;;;;;1.20;1.10;;;;;;;7.22;87.22;99569.03;6240235;23;20411;-74
2021/09/22 09:06:21;;;;;;;0.65;0.65;;;;;;;7.19;86.72;99567.41;6213717;23;20024;-74
2021/09/22 09:08:52;;;;;;;1.02;1.02;;;;;;;7.19;86.89;99574.34;6213712;23;20031;-74
2021/09/22 09:11:31;;;;;;;13.18;1.00;;;;;;;7.23;86.16;99576.72;6213891;23;20016;-75
2021/09/22 09:13:59;;;;;;;0.88;0.88;;;;;;;7.27;86.36;99573.09;6238604;23;20408;-75
2021/09/22 09:16:52;;;;;;;0.68;0.68;;;;;;;7.29;85.83;99571.28;6212770;23;20043;-77
2021/09/22 09:19:20;;;;;;;0.77;0.77;;;;;;;7.26;85.67;99584.38;6206290;23;20363;-73
2021/09/22 09:21:58;;;;;;;1.08;1.08;;;;;;;7.24;86.25;99580.16;6239485;23;20038;-76
2021/09/22 09:24:35;;;;;;;1.05;1.05;;;;;;;7.24;86.69;99580.16;6188391;23;20031;-75
2021/09/22 09:27:02;;;;;;;0.40;0.40;;;;;;;7.25;87.02;99585.31;6240033;23;20020;-74
2021/09/22 09:29:28;;;;;;;1.60;1.60;;;;;;;7.25;86.96;99581.88;6213179;23;20024;-77
2021/09/22 09:32:18;;;;;;;0.80;0.80;;;;;;;7.36;86.66;99586.56;6239912;23;20019;-77
2021/09/22 09:35:05;;;;;;;0.95;0.95;;;;;;;7.22;86.31;99585.44;6213705;23;20109;-77
2021/09/22 09:37:41;;;;;;;1.25;1.23;;;;;;;7.18;86.88;99583.91;6213624;23;20023;-78
2021/09/22 09:40:14;;;;;;;1.00;1.00;;;;;;;7.23;86.69;99581.91;6189982;23;20028;-76
2021/09/22 09:42:41;;;;;;;1.45;1.33;;;;;;;7.32;86.69;99580.66;6240004;23;20460;-77
2021/09/22 09:45:08;;;;;;;1.00;1.00;;;;;;;7.33;86.62;99583.19;6240406;23;20020;-79
2021/09/22 09:47:34;;;;;;;2.65;2.55;;;;;;;7.36;86.62;99586.56;6213348;23;20034;-75
2021/09/22 09:50:19;;;;;;;0.70;0.70;;;;;;;7.27;85.74;99578.28;6240246;23;20367;-76
2021/09/22 09:52:55;;;;;;;0.60;0.60;;;;;;;7.30;85.48;99582.47;6213074;23;20023;-75
2021/09/22 09:55:25;;;;;;;0.70;0.70;;;;;;;7.38;85.99;99585.56;6240061;23;20490;-75
2021/09/22 09:57:55;;;;;;;0.85;0.85;;;;;;;7.45;85.05;99586.13;6212176;23;20074;-77
2021/09/22 10:00:24;;;;;;;0.60;0.60;;;;;;;7.59;84.64;99583.75;6213432;23;20022;-75
2021/09/22 10:02:54;;;;;;;0.73;0.73;;;;;;;7.63;84.73;99575.72;6189965;23;20067;-77
2021/09/22 10:05:40;;;;;;;0.90;0.90;;;;;;;7.69;85.46;99579.81;6178877;23;20095;-77
2021/09/22 10:08:28;;;;;;;1.10;1.10;;;;;;;7.86;85.01;99582.41;6241768;23;20570;-76
2021/09/22 10:11:14;;;;;;;1.65;1.65;;;;;;;8.00;83.89;99584.34;6219427;23;20452;-77
2021/09/22 10:14:04;;;;;;;0.93;0.93;;;;;;;7.91;84.23;99585.66;6218833;23;20383;-77
2021/09/22 10:16:51;;;;;;;0.80;0.80;;;;;;;7.90;83.71;99580.50;6241147;23;20023;-75
2021/09/22 10:19:37;;;;;;;0.70;0.70;;;;;;;7.55;85.49;99584.78;6198336;23;20078;-75
2021/09/22 10:22:23;;;;;;;1.27;1.27;;;;;;;7.52;85.52;99585.78;6240876;23;20381;-75
2021/09/22 10:25:09;;;;;;;0.93;0.93;;;;;;;7.56;85.37;99583.91;6178141;23;20581;-74
2021/09/22 10:27:55;;;;;;;0.88;0.88;;;;;;;7.58;85.37;99592.44;6219383;23;20371;-75
2021/09/22 10:30:46;;;;;;;1.52;1.45;;;;;;;7.41;85.68;99594.97;6220226;23;20102;-73
2021/09/22 10:33:33;;;;;;;0.68;0.68;;;;;;;7.42;85.11;99599.25;6220809;23;20024;-76
2021/09/22 10:36:36;;;;;;;0.88;0.88;;;;;;;7.45;85.30;99593.94;6218724;23;20363;-76
2021/09/22 10:39:35;;;;;;;0.75;0.75;;;;;;;7.53;83.39;99595.25;6224317;23;20072;-77
2021/09/22 10:42:31;;;;;;;0.95;0.95;;;;;;;7.65;84.22;99593.84;6223964;23;20020;-76
2021/09/22 10:45:19;;;;;;;0.60;0.60;;;;;;;7.68;83.54;99598.91;6224397;23;20082;-75
2021/09/22 10:48:16;;;;;;;0.93;0.93;;;;;;;7.74;83.45;99596.00;6220124;23;20024;-75
2021/09/22 10:51:04;;;;;;;0.70;0.70;;;;;;;7.79;82.61;99607.00;6241922;23;20024;-75
2021/09/22 10:53:51;;;;;;;1.48;1.38;;;;;;;7.81;81.97;99605.19;6218376;23;20127;-76
2021/09/22 10:56:54;;;;;;;1.02;1.02;;;;;;;7.92;82.58;99602.09;6178058;23;20020;-76
2021/09/22 10:59:40;;;;;;;1.08;1.08;;;;;;;7.92;82.37;99600.31;6241141;23;20044;-75
2021/09/22 11:02:48;;;;;;;0.82;0.82;;;;;;;7.86;82.08;99606.66;6241402;23;20490;-74
2021/09/22 11:05:35;;;;;;;1.27;1.27;;;;;;;7.95;80.96;99607.94;6241490;23;20389;-75
2021/09/22 11:08:33;;;;;;;0.80;0.80;;;;;;;7.83;81.63;99621.53;6241434;23;20479;-74
2021/09/22 11:11:18;;;;;;;0.73;0.73;;;;;;;7.62;83.04;99609.56;6220777;23;20020;-73
2021/09/22 11:14:04;;;;;;;1.00;1.00;;;;;;;7.62;83.71;99614.78;6177361;23;20020;-74
2021/09/22 11:16:50;;;;;;;0.73;0.73;;;;;;;7.64;84.10;99618.13;6218388;23;20020;-74
2021/09/22 11:19:36;;;;;;;1.25;1.17;;;;;;;7.60;83.27;99621.78;6198199;23;20028;-73
2021/09/22 11:22:24;;;;;;;1.23;1.23;;;;;;;7.58;84.29;99621.88;6218622;23;20020;-75
2021/09/22 11:25:11;;;;;;;0.65;0.65;;;;;;;7.59;84.29;99618.34;6245616;23;20023;-76
2021/09/22 11:28:06;;;;;;;0.85;0.85;;;;;;;7.59;83.82;99620.13;6182653;23;20090;-76
2021/09/22 11:30:53;;;;;;;1.25;1.25;;;;;;;7.53;84.32;99625.56;6199652;23;20055;-76
2021/09/22 11:33:39;;;;;;;0.90;0.90;;;;;;;7.52;84.97;99624.75;6223987;23;20139;-78
2021/09/22 11:36:28;;;;;;;3.95;1.35;;;;;;;7.52;84.66;99624.75;6245304;23;20024;-75
2021/09/22 11:39:26;;;;;;;1.50;1.35;;;;;;;7.52;84.84;99624.75;6220119;23;20050;-78
2021/09/22 11:42:13;;;;;;;0.70;0.70;;;;;;;7.52;85.69;99624.75;6244705;23;20051;-77
2021/09/22 11:45:00;;;;;;;0.77;0.77;;;;;;;7.54;85.02;99632.44;6222795;23;20440;-77
2021/09/22 11:47:46;;;;;;;1.73;1.63;;;;;;;7.56;84.74;99622.84;6242388;23;20464;-78
2021/09/22 11:50:37;;;;;;;0.60;0.60;;;;;;;7.62;83.86;99617.38;6220300;23;20464;-76
2021/09/22 11:53:25;;;;;;;0.70;0.70;;;;;;;7.69;84.08;99623.97;6242664;23;20016;-77
2021/09/22 11:56:11;;;;;;;0.82;0.82;;;;;;;7.60;84.57;99627.81;6212132;23;20020;-77
2021/09/22 11:58:57;;;;;;;0.80;0.80;;;;;;;7.55;85.00;99622.00;6257761;23;20066;-77
2021/09/22 12:01:45;;;;;;;1.27;1.27;;;;;;;7.61;84.36;99626.06;6229891;23;20475;-78
2021/09/22 12:04:44;;;;;;;1.05;1.05;;;;;;;7.71;83.14;99622.13;6213231;23;20115;-78
2021/09/22 12:07:30;;;;;;;1.38;1.35;;;;;;;7.57;83.28;99629.72;6253867;23;20081;-77
2021/09/22 12:10:16;;;;;;;2.30;2.20;;;;;;;7.55;83.32;99628.94;6234490;23;20094;-78
2021/09/22 12:13:04;;;;;;;0.88;0.88;;;;;;;7.64;83.35;99634.56;6252474;23;20424;-77
2021/09/22 12:15:54;;;;;;;0.65;0.65;;;;;;;7.64;83.22;99634.56;6225104;23;20016;-77
2021/09/22 12:18:40;;;;;;;1.33;1.33;;;;;;;7.59;84.84;99635.69;6226414;23;20031;-77
2021/09/22 12:21:31;;;;;;;0.57;0.57;;;;;;;7.62;85.01;99635.56;6210858;23;20027;-77
2021/09/22 12:24:16;;;;;;;1.17;1.17;;;;;;;7.61;85.26;99633.84;6251957;23;20038;-75
2021/09/22 12:27:02;;;;;;;0.63;0.63;;;;;;;7.62;84.99;99630.34;6206446;23;20031;-77
2021/09/22 12:29:53;;;;;;;1.17;1.15;;;;;;;7.68;85.26;99637.88;6246221;23;20023;-79
2021/09/22 12:32:52;;;;;;;0.63;0.63;;;;;;;7.56;85.92;99633.25;6241247;23;20020;-77
2021/09/22 12:35:42;;;;;;;1.20;1.20;;;;;;;7.58;85.76;99645.25;6241250;23;20085;-76
2021/09/22 12:38:28;;;;;;;1.42;1.42;;;;;;;7.48;85.79;99637.94;6241434;23;20526;-80
2021/09/22 12:41:14;;;;;;;1.48;1.48;;;;;;;7.43;86.37;99647.69;6243757;23;20031;-78
2021/09/22 12:44:00;;;;;;;1.20;1.20;;;;;;;7.39;86.51;99638.34;6240816;23;20027;-75
2021/09/22 12:46:47;;;;;;;0.60;0.60;;;;;;;7.37;86.61;99640.16;6240693;23;20020;-76
2021/09/22 12:49:33;;;;;;;1.50;1.50;;;;;;;7.34;86.34;99634.22;6239869;23;20541;-75
2021/09/22 12:52:22;;;;;;;1.58;1.55;;;;;;;7.38;86.03;99642.72;6199082;23;20020;-75
2021/09/22 12:55:15;;;;;;;1.25;1.25;;;;;;;7.44;86.72;99651.97;6220666;23;20028;-76
2021/09/22 12:58:02;;;;;;;1.70;1.60;;;;;;;7.45;86.97;99646.72;6220975;23;20054;-73